createdAt,value
2018-11-06T00:00:39.995Z,0.00
2018-11-06T00:01:40.055Z,0.00
2018-11-06T00:02:40.031Z,0.00
2018-11-06T00:03:40.035Z,0.00
2018-11-06T00:04:40.052Z,0.00
2018-11-06T00:05:40.053Z,0.00
2018-11-06T00:06:40.127Z,0.00
2018-11-06T00:07:40.091Z,0.00
2018-11-06T00:08:40.103Z,0.00
2018-11-06T00:09:40.114Z,0.00
2018-11-06T00:10:40.289Z,0.00
2018-11-06T00:11:40.157Z,0.00
2018-11-06T00:12:40.168Z,0.00
2018-11-06T00:13:40.176Z,0.00
2018-11-06T00:14:40.185Z,0.00
2018-11-06T00:15:40.354Z,0.00
2018-11-06T00:16:40.244Z,0.00
2018-11-06T00:17:40.256Z,0.00
2018-11-06T00:18:40.236Z,0.00
2018-11-06T00:19:40.231Z,0.00
2018-11-06T00:20:40.301Z,0.00
2018-11-06T00:21:40.271Z,0.00
2018-11-06T00:22:40.288Z,0.00
2018-11-06T00:23:40.447Z,0.00
2018-11-06T00:24:40.298Z,0.00
2018-11-06T00:25:40.321Z,0.00
2018-11-06T00:26:40.328Z,0.00
2018-11-06T00:27:40.330Z,0.00
2018-11-06T00:28:40.502Z,0.00
2018-11-06T00:29:40.365Z,0.00
2018-11-06T00:30:40.378Z,0.00
2018-11-06T00:31:40.510Z,0.00
2018-11-06T00:32:40.523Z,0.00
2018-11-06T00:33:40.564Z,0.00
2018-11-06T00:34:40.422Z,0.00
2018-11-06T00:35:40.448Z,0.00
2018-11-06T00:36:40.464Z,0.00
2018-11-06T00:37:40.453Z,0.00
2018-11-06T00:38:40.472Z,0.00
2018-11-06T00:39:40.533Z,0.00
2018-11-06T00:40:40.496Z,0.00
2018-11-06T00:41:40.519Z,0.00
2018-11-06T00:42:40.536Z,0.00
2018-11-06T00:43:40.563Z,0.00
2018-11-06T00:44:40.555Z,0.00
2018-11-06T00:45:40.573Z,0.00
2018-11-06T00:46:40.732Z,0.00
2018-11-06T00:47:40.592Z,0.00
2018-11-06T00:48:40.595Z,0.00
2018-11-06T00:49:40.628Z,0.00
2018-11-06T00:50:40.633Z,0.00
2018-11-06T00:51:40.639Z,0.00
2018-11-06T00:52:40.924Z,0.00
2018-11-06T00:53:40.676Z,0.00
2018-11-06T00:55:40.690Z,0.00
2018-11-06T00:56:40.711Z,0.00
2018-11-06T00:57:40.894Z,0.00
2018-11-06T00:58:40.744Z,0.00
2018-11-06T00:59:40.750Z,0.00
2018-11-06T01:00:40.762Z,0.00
2018-11-06T01:01:40.779Z,0.00
2018-11-06T01:02:40.945Z,0.00
2018-11-06T01:03:40.853Z,0.00
2018-11-06T01:04:40.929Z,0.00
2018-11-06T01:05:40.824Z,0.00
2018-11-06T01:06:40.830Z,0.00
2018-11-06T01:07:41.034Z,0.00
2018-11-06T01:08:40.854Z,0.00
2018-11-06T01:09:40.889Z,0.00
2018-11-06T01:10:41.007Z,0.00
2018-11-06T01:11:40.897Z,0.00
2018-11-06T01:12:40.952Z,0.00
2018-11-06T01:13:41.094Z,0.00
2018-11-06T01:14:40.951Z,0.00
2018-11-06T01:15:40.943Z,0.00
2018-11-06T01:16:40.972Z,0.00
2018-11-06T01:17:40.975Z,0.00
2018-11-06T01:18:41.053Z,0.00
2018-11-06T01:19:41.117Z,0.00
2018-11-06T01:20:41.006Z,0.00
2018-11-06T01:21:41.033Z,0.00
2018-11-06T01:22:41.081Z,0.00
2018-11-06T01:23:41.203Z,0.00
2018-11-06T01:24:41.056Z,0.00
2018-11-06T01:25:41.092Z,0.00
2018-11-06T01:26:41.083Z,0.00
2018-11-06T01:27:41.106Z,0.00
2018-11-06T01:28:41.218Z,0.00
2018-11-06T01:29:41.150Z,0.00
2018-11-06T01:30:41.318Z,0.00
2018-11-06T01:31:41.153Z,0.00
2018-11-06T01:32:41.182Z,0.00
2018-11-06T01:33:41.229Z,0.00
2018-11-06T01:34:41.194Z,0.00
2018-11-06T01:35:41.356Z,0.00
2018-11-06T01:36:41.220Z,0.00
2018-11-06T01:37:41.238Z,0.00
2018-11-06T01:38:41.244Z,0.00
2018-11-06T01:39:41.246Z,0.00
2018-11-06T01:40:41.536Z,0.00
2018-11-06T01:41:41.286Z,0.00
2018-11-06T01:42:41.294Z,0.00
2018-11-06T01:43:41.318Z,0.00
2018-11-06T01:44:41.339Z,0.00
2018-11-06T01:45:41.483Z,0.00
2018-11-06T01:46:41.352Z,0.00
2018-11-06T01:47:41.360Z,0.00
2018-11-06T01:48:41.380Z,0.00
2018-11-06T01:49:41.370Z,0.00
2018-11-06T01:50:41.392Z,0.00
2018-11-06T01:51:41.414Z,0.00
2018-11-06T01:52:41.402Z,0.00
2018-11-06T01:53:41.419Z,0.00
2018-11-06T01:54:41.464Z,0.00
2018-11-06T01:55:41.631Z,0.00
2018-11-06T01:56:41.476Z,0.00
2018-11-06T01:57:41.489Z,0.00
2018-11-06T01:58:41.540Z,0.00
2018-11-06T01:59:41.626Z,0.00
2018-11-06T02:00:41.519Z,0.00
2018-11-06T02:01:41.527Z,0.00
2018-11-06T02:02:41.539Z,0.00
2018-11-06T02:03:41.676Z,0.00
2018-11-06T02:04:41.635Z,0.00
2018-11-06T02:05:41.590Z,0.00
2018-11-06T02:06:41.865Z,0.00
2018-11-06T02:07:41.598Z,0.00
2018-11-06T02:08:41.738Z,0.00
2018-11-06T02:09:41.670Z,0.00
2018-11-06T02:10:41.685Z,0.00
2018-11-06T02:11:41.706Z,0.00
2018-11-06T02:12:41.674Z,0.00
2018-11-06T02:13:41.672Z,0.00
2018-11-06T02:14:41.691Z,0.00
2018-11-06T02:15:41.712Z,0.00
2018-11-06T02:16:41.868Z,0.00
2018-11-06T02:17:41.725Z,0.00
2018-11-06T02:18:41.751Z,0.00
2018-11-06T02:19:41.761Z,0.00
2018-11-06T02:20:41.781Z,0.00
2018-11-06T02:21:41.891Z,0.00
2018-11-06T02:22:41.916Z,0.00
2018-11-06T02:23:41.820Z,0.00
2018-11-06T02:24:41.832Z,0.00
2018-11-06T02:25:41.833Z,0.00
2018-11-06T02:26:41.964Z,0.00
2018-11-06T02:27:42.015Z,0.00
2018-11-06T02:28:41.862Z,0.00
2018-11-06T02:29:41.889Z,0.00
2018-11-06T02:30:41.884Z,0.00
2018-11-06T02:31:41.911Z,0.00
2018-11-06T02:32:42.193Z,0.00
2018-11-06T02:33:41.919Z,0.00
2018-11-06T02:34:41.946Z,0.00
2018-11-06T02:35:41.948Z,0.00
2018-11-06T02:36:42.094Z,0.00
2018-11-06T02:37:42.132Z,0.00
2018-11-06T02:38:41.988Z,0.00
2018-11-06T02:39:41.994Z,0.00
2018-11-06T02:40:42.002Z,0.00
2018-11-06T02:41:42.046Z,0.00
2018-11-06T02:42:42.317Z,0.00
2018-11-06T02:43:42.043Z,0.00
2018-11-06T02:44:42.095Z,0.00
2018-11-06T02:45:42.200Z,0.00
2018-11-06T02:46:42.095Z,0.00
2018-11-06T02:47:42.098Z,0.00
2018-11-06T02:48:42.121Z,0.00
2018-11-06T02:49:42.133Z,0.00
2018-11-06T02:50:42.197Z,0.00
2018-11-06T02:51:42.149Z,0.00
2018-11-06T02:52:42.173Z,0.00
2018-11-06T02:53:42.188Z,0.00
2018-11-06T02:54:42.336Z,0.00
2018-11-06T02:55:42.376Z,0.00
2018-11-06T02:56:42.219Z,0.00
2018-11-06T02:57:42.234Z,0.00
2018-11-06T02:58:42.269Z,0.00
2018-11-06T02:59:42.300Z,0.00
2018-11-06T03:00:42.262Z,0.00
2018-11-06T03:01:42.281Z,0.00
2018-11-06T03:02:42.437Z,0.00
2018-11-06T03:03:42.316Z,0.00
2018-11-06T03:04:42.446Z,0.00
2018-11-06T03:05:42.454Z,0.00
2018-11-06T03:06:42.359Z,0.00
2018-11-06T03:07:42.501Z,0.00
2018-11-06T03:08:42.389Z,0.00
2018-11-06T03:09:42.387Z,0.00
2018-11-06T03:10:42.409Z,0.00
2018-11-06T03:11:42.411Z,0.00
2018-11-06T03:12:42.472Z,0.00
2018-11-06T03:13:42.452Z,0.00
2018-11-06T03:14:42.444Z,0.00
2018-11-06T03:15:42.581Z,0.00
2018-11-06T03:16:42.492Z,0.00
2018-11-06T03:17:42.626Z,0.00
2018-11-06T03:18:42.510Z,0.00
2018-11-06T03:19:42.508Z,0.00
2018-11-06T03:20:42.532Z,0.00
2018-11-06T03:21:42.534Z,0.00
2018-11-06T03:22:42.712Z,0.00
2018-11-06T03:23:42.578Z,0.00
2018-11-06T03:24:42.580Z,0.00
2018-11-06T03:25:42.640Z,0.00
2018-11-06T03:26:42.604Z,0.00
2018-11-06T03:27:42.781Z,0.00
2018-11-06T03:28:42.628Z,0.00
2018-11-06T03:29:42.646Z,0.00
2018-11-06T03:30:42.666Z,0.00
2018-11-06T03:31:42.675Z,0.00
2018-11-06T03:32:42.854Z,0.00
2018-11-06T03:33:42.689Z,0.00
2018-11-06T03:34:42.720Z,0.00
2018-11-06T03:35:42.720Z,0.00
2018-11-06T03:36:42.731Z,0.00
2018-11-06T03:37:43.011Z,0.00
2018-11-06T03:38:42.748Z,0.00
2018-11-06T03:39:42.884Z,0.00
2018-11-06T03:40:42.765Z,0.00
2018-11-06T03:41:42.794Z,0.00
2018-11-06T03:42:42.984Z,0.00
2018-11-06T03:43:42.804Z,0.00
2018-11-06T03:44:42.887Z,0.00
2018-11-06T03:45:42.835Z,0.00
2018-11-06T03:46:42.849Z,0.00
2018-11-06T03:47:43.031Z,0.00
2018-11-06T03:48:42.881Z,0.00
2018-11-06T03:49:42.909Z,0.00
2018-11-06T03:50:42.951Z,0.00
2018-11-06T03:51:43.038Z,0.00
2018-11-06T03:52:43.090Z,0.00
2018-11-06T03:53:42.937Z,0.00
2018-11-06T03:54:42.951Z,0.00
2018-11-06T03:55:42.972Z,0.00
2018-11-06T03:56:42.978Z,0.00
2018-11-06T03:57:43.146Z,0.00
2018-11-06T03:58:42.993Z,0.00
2018-11-06T03:59:43.021Z,0.00
2018-11-06T04:00:43.038Z,0.00
2018-11-06T04:01:43.165Z,0.00
2018-11-06T04:02:43.121Z,0.00
2018-11-06T04:03:43.220Z,0.00
2018-11-06T04:04:43.078Z,0.00
2018-11-06T04:05:43.096Z,0.00
2018-11-06T04:06:43.226Z,0.00
2018-11-06T04:07:43.238Z,0.00
2018-11-06T04:08:43.291Z,0.00
2018-11-06T04:09:43.162Z,0.00
2018-11-06T04:10:43.163Z,0.00
2018-11-06T04:11:43.170Z,0.00
2018-11-06T04:12:43.187Z,0.00
2018-11-06T04:13:43.251Z,0.00
2018-11-06T04:14:43.327Z,0.00
2018-11-06T04:15:43.217Z,0.00
2018-11-06T04:16:43.237Z,0.00
2018-11-06T04:17:43.253Z,0.00
2018-11-06T04:18:43.314Z,0.00
2018-11-06T04:19:43.279Z,0.00
2018-11-06T04:20:43.270Z,0.00
2018-11-06T04:21:43.299Z,0.00
2018-11-06T04:22:43.332Z,0.00
2018-11-06T04:23:43.324Z,0.00
2018-11-06T04:24:43.486Z,0.00
2018-11-06T04:25:43.346Z,0.00
2018-11-06T04:26:43.361Z,0.00
2018-11-06T04:27:43.369Z,0.00
2018-11-06T04:28:43.394Z,0.00
2018-11-06T04:29:43.394Z,0.00
2018-11-06T04:30:43.402Z,0.00
2018-11-06T04:31:43.586Z,0.00
2018-11-06T04:32:43.460Z,0.00
2018-11-06T04:33:43.446Z,0.00
2018-11-06T04:34:43.477Z,0.00
2018-11-06T04:35:43.592Z,0.00
2018-11-06T04:36:43.493Z,0.00
2018-11-06T04:37:43.498Z,0.00
2018-11-06T04:38:43.504Z,0.00
2018-11-06T04:39:43.532Z,0.00
2018-11-06T04:40:43.543Z,0.00
2018-11-06T04:41:43.539Z,0.00
2018-11-06T04:42:43.550Z,0.00
2018-11-06T04:43:43.576Z,0.00
2018-11-06T04:44:43.578Z,0.00
2018-11-06T04:45:43.641Z,0.00
2018-11-06T04:46:43.614Z,0.00
2018-11-06T04:47:43.799Z,0.00
2018-11-06T04:48:43.636Z,0.00
2018-11-06T04:49:43.645Z,0.00
2018-11-06T04:50:43.674Z,0.00
2018-11-06T04:51:43.715Z,0.00
2018-11-06T04:52:43.751Z,0.00
2018-11-06T04:53:43.697Z,0.00
2018-11-06T04:54:43.701Z,0.00
2018-11-06T04:55:43.729Z,0.00
2018-11-06T04:56:43.753Z,0.00
2018-11-06T04:57:43.821Z,0.00
2018-11-06T04:58:43.893Z,0.00
2018-11-06T04:59:43.766Z,0.00
2018-11-06T05:00:43.871Z,0.00
2018-11-06T05:01:43.817Z,0.00
2018-11-06T05:02:44.043Z,0.00
2018-11-06T05:03:43.817Z,0.00
2018-11-06T05:04:43.843Z,0.00
2018-11-06T05:05:43.855Z,0.00
2018-11-06T05:06:43.906Z,0.00
2018-11-06T05:07:44.047Z,0.00
2018-11-06T05:08:43.903Z,0.00
2018-11-06T05:09:43.961Z,0.00
2018-11-06T05:10:43.932Z,0.00
2018-11-06T05:11:43.929Z,0.00
2018-11-06T05:12:43.997Z,0.00
2018-11-06T05:13:43.946Z,0.00
2018-11-06T05:14:43.982Z,0.00
2018-11-06T05:15:44.050Z,0.00
2018-11-06T05:16:43.998Z,0.00
2018-11-06T05:17:44.179Z,0.00
2018-11-06T05:18:44.025Z,0.00
2018-11-06T05:19:44.043Z,0.00
2018-11-06T05:20:44.172Z,0.00
2018-11-06T05:21:44.071Z,0.00
2018-11-06T05:22:44.130Z,0.00
2018-11-06T05:23:44.124Z,0.00
2018-11-06T05:24:44.123Z,0.00
2018-11-06T05:25:44.128Z,0.00
2018-11-06T05:26:44.112Z,0.00
2018-11-06T05:27:44.180Z,0.00
2018-11-06T05:28:44.144Z,0.00
2018-11-06T05:29:44.169Z,0.00
2018-11-06T05:30:44.173Z,0.00
2018-11-06T05:31:44.276Z,0.00
2018-11-06T05:32:44.281Z,0.00
2018-11-06T05:33:44.199Z,0.00
2018-11-06T05:34:44.256Z,0.00
2018-11-06T05:35:44.250Z,0.00
2018-11-06T05:36:44.439Z,0.00
2018-11-06T05:37:44.247Z,0.00
2018-11-06T05:38:44.339Z,0.00
2018-11-06T05:39:44.294Z,0.00
2018-11-06T05:40:44.421Z,0.00
2018-11-06T05:41:44.378Z,0.00
2018-11-06T05:42:44.316Z,0.00
2018-11-06T05:43:44.327Z,0.00
2018-11-06T05:44:44.358Z,0.00
2018-11-06T05:45:44.487Z,0.00
2018-11-06T05:46:44.435Z,0.00
2018-11-06T05:47:44.395Z,0.00
2018-11-06T05:48:44.406Z,0.00
2018-11-06T05:49:44.419Z,0.00
2018-11-06T05:50:44.419Z,0.00
2018-11-06T05:51:44.579Z,0.00
2018-11-06T05:52:44.442Z,0.00
2018-11-06T05:53:44.473Z,0.00
2018-11-06T05:54:44.599Z,0.00
2018-11-06T05:55:44.488Z,0.00
2018-11-06T05:56:44.551Z,0.00
2018-11-06T05:57:44.515Z,0.00
2018-11-06T05:58:44.520Z,0.00
2018-11-06T05:59:44.664Z,0.00
2018-11-06T06:00:44.593Z,0.00
2018-11-06T06:01:44.671Z,0.00
2018-11-06T06:02:44.601Z,0.00
2018-11-06T06:03:44.579Z,0.00
2018-11-06T06:04:44.626Z,0.00
2018-11-06T06:05:44.615Z,0.00
2018-11-06T06:06:44.723Z,0.00
2018-11-06T06:07:44.640Z,0.00
2018-11-06T06:08:44.772Z,0.00
2018-11-06T06:09:44.668Z,0.00
2018-11-06T06:10:44.677Z,0.00
2018-11-06T06:11:44.793Z,0.00
2018-11-06T06:12:44.712Z,0.00
2018-11-06T06:13:44.724Z,0.00
2018-11-06T06:14:44.736Z,0.00
2018-11-06T06:15:44.739Z,0.00
2018-11-06T06:16:44.866Z,0.00
2018-11-06T06:17:44.768Z,0.00
2018-11-06T06:18:44.779Z,0.00
2018-11-06T06:19:44.795Z,0.00
2018-11-06T06:20:44.818Z,0.00
2018-11-06T06:21:44.866Z,0.00
2018-11-06T06:22:44.850Z,0.00
2018-11-06T06:23:44.849Z,0.00
2018-11-06T06:24:44.858Z,0.00
2018-11-06T06:25:44.869Z,0.00
2018-11-06T06:26:45.071Z,0.00
2018-11-06T06:27:44.904Z,0.00
2018-11-06T06:28:44.961Z,0.00
2018-11-06T06:29:44.912Z,0.00
2018-11-06T06:30:44.934Z,0.00
2018-11-06T06:31:45.135Z,0.00
2018-11-06T06:32:44.972Z,0.00
2018-11-06T06:33:44.968Z,0.00
2018-11-06T06:34:45.077Z,0.00
2018-11-06T06:35:44.995Z,0.00
2018-11-06T06:36:45.195Z,0.00
2018-11-06T06:37:45.137Z,0.00
2018-11-06T06:38:45.090Z,0.00
2018-11-06T06:39:45.065Z,0.00
2018-11-06T06:40:45.097Z,0.00
2018-11-06T06:41:45.073Z,0.00
2018-11-06T06:42:45.086Z,0.00
2018-11-06T06:43:45.110Z,0.00
2018-11-06T06:44:45.143Z,0.00
2018-11-06T06:45:45.328Z,0.00
2018-11-06T06:46:45.148Z,0.00
2018-11-06T06:47:45.141Z,0.00
2018-11-06T06:48:45.160Z,0.00
2018-11-06T06:49:45.290Z,0.00
2018-11-06T06:50:45.241Z,0.00
2018-11-06T06:51:45.199Z,0.00
2018-11-06T06:52:45.208Z,0.00
2018-11-06T06:53:45.222Z,0.00
2018-11-06T06:54:45.394Z,0.00
2018-11-06T06:55:45.299Z,0.00
2018-11-06T06:56:45.249Z,0.00
2018-11-06T06:57:45.338Z,0.00
2018-11-06T06:58:45.297Z,0.00
2018-11-06T06:59:45.417Z,0.00
2018-11-06T07:00:45.529Z,0.00
2018-11-06T07:01:45.337Z,0.00
2018-11-06T07:02:45.456Z,0.00
2018-11-06T07:03:45.362Z,0.00
2018-11-06T07:04:45.354Z,0.00
2018-11-06T07:05:45.473Z,0.00
2018-11-06T07:06:45.375Z,0.00
2018-11-06T07:07:45.518Z,0.00
2018-11-06T07:08:45.531Z,0.00
2018-11-06T07:09:45.420Z,0.00
2018-11-06T07:10:45.607Z,0.00
2018-11-06T07:11:45.449Z,0.00
2018-11-06T07:12:45.528Z,0.00
2018-11-06T07:13:45.479Z,0.00
2018-11-06T07:14:45.524Z,0.00
2018-11-06T07:15:45.518Z,0.00
2018-11-06T07:16:45.529Z,0.00
2018-11-06T07:17:45.529Z,0.00
2018-11-06T07:18:45.602Z,0.00
2018-11-06T07:19:45.670Z,0.00
2018-11-06T07:20:45.606Z,0.00
2018-11-06T07:21:45.586Z,0.00
2018-11-06T07:22:45.640Z,0.00
2018-11-06T07:23:45.642Z,0.00
2018-11-06T07:24:45.734Z,0.00
2018-11-06T07:25:45.681Z,0.00
2018-11-06T07:26:45.632Z,0.00
2018-11-06T07:27:45.653Z,0.00
2018-11-06T07:28:45.675Z,0.00
2018-11-06T07:29:45.669Z,0.00
2018-11-06T07:30:45.733Z,0.00
2018-11-06T07:31:45.822Z,0.00
2018-11-06T07:32:45.724Z,0.00
2018-11-06T07:33:45.724Z,0.00
2018-11-06T07:34:45.882Z,0.00
2018-11-06T07:35:46.034Z,0.00
2018-11-06T07:36:45.885Z,0.00
2018-11-06T07:37:45.779Z,0.00
2018-11-06T07:38:45.786Z,0.00
2018-11-06T07:39:45.815Z,0.00
2018-11-06T07:40:45.877Z,0.00
2018-11-06T07:41:45.843Z,0.00
2018-11-06T07:42:45.891Z,0.00
2018-11-06T07:43:45.851Z,0.00
2018-11-06T07:44:45.991Z,0.00
2018-11-06T07:45:46.037Z,0.00
2018-11-06T07:46:45.905Z,0.00
2018-11-06T07:47:45.899Z,0.00
2018-11-06T07:48:45.929Z,0.00
2018-11-06T07:49:45.937Z,0.00
2018-11-06T07:50:45.990Z,0.00
2018-11-06T07:51:45.971Z,0.00
2018-11-06T07:52:45.970Z,0.00
2018-11-06T07:53:45.971Z,0.00
2018-11-06T07:54:45.995Z,0.00
2018-11-06T07:55:46.333Z,0.00
2018-11-06T07:56:46.026Z,0.00
2018-11-06T07:57:46.026Z,0.00
2018-11-06T07:58:46.044Z,0.00
2018-11-06T07:59:46.085Z,0.00
2018-11-06T08:00:46.111Z,0.00
2018-11-06T08:01:46.078Z,0.00
2018-11-06T08:02:46.092Z,0.00
2018-11-06T08:03:46.226Z,0.00
2018-11-06T08:04:46.110Z,0.00
2018-11-06T08:05:46.223Z,0.00
2018-11-06T08:06:46.150Z,0.00
2018-11-06T08:07:46.156Z,0.00
2018-11-06T08:08:46.164Z,0.00
2018-11-06T08:09:46.237Z,0.00
2018-11-06T08:10:46.367Z,0.00
2018-11-06T08:11:46.211Z,0.00
2018-11-06T08:12:46.213Z,5.63
2018-11-06T08:13:46.231Z,5.63
2018-11-06T08:14:46.353Z,5.63
2018-11-06T08:15:46.365Z,5.63
2018-11-06T08:16:46.296Z,5.63
2018-11-06T08:17:46.339Z,11.25
2018-11-06T08:18:46.303Z,11.25
2018-11-06T08:19:46.314Z,11.25
2018-11-06T08:20:46.451Z,11.25
2018-11-06T08:21:46.345Z,16.88
2018-11-06T08:22:46.346Z,16.88
2018-11-06T08:23:46.476Z,22.50
2018-11-06T08:24:46.371Z,22.50
2018-11-06T08:25:46.562Z,28.13
2018-11-06T08:26:46.402Z,28.13
2018-11-06T08:27:46.552Z,28.13
2018-11-06T08:28:46.485Z,28.13
2018-11-06T08:29:46.449Z,33.75
2018-11-06T08:30:46.676Z,33.75
2018-11-06T08:31:46.937Z,39.38
2018-11-06T08:32:46.783Z,39.38
2018-11-06T08:33:46.508Z,45.00
2018-11-06T08:34:46.497Z,50.63
2018-11-06T08:35:46.572Z,56.25
2018-11-06T08:36:46.572Z,56.25
2018-11-06T08:37:46.536Z,61.88
2018-11-06T08:38:46.679Z,61.88
2018-11-06T08:39:46.582Z,67.50
2018-11-06T08:40:46.754Z,73.13
2018-11-06T08:41:46.580Z,78.75
2018-11-06T08:42:46.607Z,84.38
2018-11-06T08:43:46.630Z,84.38
2018-11-06T08:44:46.904Z,90.00
2018-11-06T08:45:46.682Z,95.63
2018-11-06T08:46:46.776Z,95.63
2018-11-06T08:47:46.667Z,101.25
2018-11-06T08:48:46.685Z,106.88
2018-11-06T08:49:46.853Z,106.88
2018-11-06T08:50:46.828Z,112.50
2018-11-06T08:51:46.746Z,118.13
2018-11-06T08:52:46.854Z,129.38
2018-11-06T08:53:46.792Z,140.63
2018-11-06T08:54:46.954Z,146.25
2018-11-06T08:55:46.768Z,157.50
2018-11-06T08:56:46.795Z,168.75
2018-11-06T08:57:46.809Z,163.13
2018-11-06T08:58:46.820Z,168.75
2018-11-06T08:59:46.876Z,168.75
2018-11-06T09:00:46.849Z,168.75
2018-11-06T09:01:46.849Z,174.38
2018-11-06T09:02:46.975Z,168.75
2018-11-06T09:03:46.944Z,163.13
2018-11-06T09:04:46.924Z,168.75
2018-11-06T09:05:46.911Z,219.38
2018-11-06T09:06:46.946Z,196.88
2018-11-06T09:07:46.920Z,185.63
2018-11-06T09:08:47.047Z,185.63
2018-11-06T09:09:47.176Z,225.00
2018-11-06T09:10:46.985Z,230.63
2018-11-06T09:11:46.981Z,225.00
2018-11-06T09:12:46.996Z,208.13
2018-11-06T09:13:47.008Z,264.38
2018-11-06T09:14:47.070Z,253.13
2018-11-06T09:15:47.048Z,281.25
2018-11-06T09:16:47.220Z,292.50
2018-11-06T09:17:47.075Z,303.75
2018-11-06T09:18:47.095Z,315.00
2018-11-06T09:19:47.102Z,326.25
2018-11-06T09:20:47.110Z,331.88
2018-11-06T09:21:47.194Z,343.13
2018-11-06T09:22:47.141Z,343.13
2018-11-06T09:23:47.168Z,348.75
2018-11-06T09:24:47.186Z,354.38
2018-11-06T09:25:47.184Z,360.00
2018-11-06T09:26:51.635Z,281.25
2018-11-06T09:27:47.235Z,326.25
2018-11-06T09:28:47.253Z,253.13
2018-11-06T09:29:47.263Z,281.25
2018-11-06T09:30:47.333Z,331.88
2018-11-06T09:31:47.281Z,360.00
2018-11-06T09:32:47.316Z,388.13
2018-11-06T09:33:47.325Z,416.25
2018-11-06T09:34:47.330Z,483.75
2018-11-06T09:35:47.424Z,444.38
2018-11-06T09:36:47.381Z,433.13
2018-11-06T09:37:47.407Z,433.13
2018-11-06T09:38:47.414Z,433.13
2018-11-06T09:39:47.415Z,461.25
2018-11-06T09:40:47.568Z,478.13
2018-11-06T09:41:47.460Z,495.00
2018-11-06T09:42:47.480Z,495.00
2018-11-06T09:43:47.552Z,438.75
2018-11-06T09:44:47.512Z,455.63
2018-11-06T09:45:47.539Z,478.13
2018-11-06T09:46:47.548Z,607.50
2018-11-06T09:47:47.567Z,568.13
2018-11-06T09:48:47.763Z,596.25
2018-11-06T09:49:47.644Z,579.38
2018-11-06T09:50:47.622Z,585.00
2018-11-06T09:51:47.632Z,562.50
2018-11-06T09:52:47.644Z,562.50
2018-11-06T09:53:47.669Z,556.88
2018-11-06T09:54:47.697Z,551.25
2018-11-06T09:55:47.723Z,585.00
2018-11-06T09:56:47.760Z,585.00
2018-11-06T09:57:47.861Z,607.50
2018-11-06T09:58:47.806Z,556.88
2018-11-06T09:59:47.775Z,568.13
2018-11-06T10:00:47.791Z,562.50
2018-11-06T10:01:47.871Z,506.25
2018-11-06T10:02:47.839Z,489.38
2018-11-06T10:03:47.872Z,489.38
2018-11-06T10:04:47.879Z,466.88
2018-11-06T10:05:47.895Z,393.75
2018-11-06T10:06:48.215Z,393.75
2018-11-06T10:07:48.062Z,461.25
2018-11-06T10:08:48.036Z,517.50
2018-11-06T10:09:47.963Z,686.25
2018-11-06T10:10:47.981Z,466.88
2018-11-06T10:11:47.995Z,405.00
2018-11-06T10:12:48.026Z,365.63
2018-11-06T10:13:48.101Z,388.13
2018-11-06T10:14:48.082Z,444.38
2018-11-06T10:15:48.153Z,433.13
2018-11-06T10:16:48.075Z,388.13
2018-11-06T10:17:48.113Z,343.13
2018-11-06T10:18:48.162Z,320.63
2018-11-06T10:19:48.125Z,315.00
2018-11-06T10:20:48.151Z,320.63
2018-11-06T10:21:48.149Z,315.00
2018-11-06T10:22:48.186Z,331.88
2018-11-06T10:23:48.290Z,393.75
2018-11-06T10:24:48.625Z,438.75
2018-11-06T10:25:48.234Z,466.88
2018-11-06T10:26:48.242Z,523.13
2018-11-06T10:27:48.249Z,517.50
2018-11-06T10:28:48.325Z,483.75
2018-11-06T10:29:48.296Z,455.63
2018-11-06T10:30:48.404Z,466.88
2018-11-06T10:31:48.326Z,511.88
2018-11-06T10:32:48.341Z,562.50
2018-11-06T10:33:48.477Z,534.38
2018-11-06T10:34:48.377Z,534.38
2018-11-06T10:35:48.386Z,568.13
2018-11-06T10:36:48.454Z,652.50
2018-11-06T10:37:48.422Z,731.25
2018-11-06T10:38:48.666Z,731.25
2018-11-06T10:39:48.460Z,652.50
2018-11-06T10:40:48.460Z,590.63
2018-11-06T10:41:48.616Z,534.38
2018-11-06T10:42:48.503Z,523.13
2018-11-06T10:43:48.650Z,528.75
2018-11-06T10:44:48.536Z,517.50
2018-11-06T10:45:48.679Z,528.75
2018-11-06T10:46:48.574Z,568.13
2018-11-06T10:47:48.610Z,635.63
2018-11-06T10:48:48.680Z,759.38
2018-11-06T10:49:48.639Z,826.88
2018-11-06T10:50:48.651Z,860.63
2018-11-06T10:51:48.744Z,883.13
2018-11-06T10:52:48.671Z,1085.63
2018-11-06T10:53:48.742Z,1029.38
2018-11-06T10:54:48.700Z,1063.13
2018-11-06T10:55:48.735Z,1164.38
2018-11-06T10:56:48.744Z,1220.63
2018-11-06T10:57:48.768Z,1271.25
2018-11-06T10:58:48.824Z,1620.00
2018-11-06T10:59:48.794Z,911.25
2018-11-06T11:00:48.812Z,838.13
2018-11-06T11:01:48.836Z,860.63
2018-11-06T11:02:48.849Z,922.50
2018-11-06T11:03:48.904Z,945.00
2018-11-06T11:04:49.005Z,928.13
2018-11-06T11:05:48.917Z,871.88
2018-11-06T11:06:48.934Z,787.50
2018-11-06T11:07:48.956Z,793.13
2018-11-06T11:08:48.978Z,860.63
2018-11-06T11:09:48.976Z,945.00
2018-11-06T11:10:48.976Z,990.00
2018-11-06T11:11:49.110Z,1040.63
2018-11-06T11:12:49.029Z,1091.25
2018-11-06T11:13:49.059Z,1063.13
2018-11-06T11:14:49.069Z,1018.13
2018-11-06T11:15:49.086Z,1046.25
2018-11-06T11:16:49.190Z,1091.25
2018-11-06T11:17:49.111Z,1068.75
2018-11-06T11:18:49.140Z,1035.00
2018-11-06T11:19:49.169Z,984.38
2018-11-06T11:20:49.231Z,933.75
2018-11-06T11:21:49.299Z,911.25
2018-11-06T11:22:49.215Z,911.25
2018-11-06T11:23:49.215Z,939.38
2018-11-06T11:24:49.251Z,984.38
2018-11-06T11:25:49.343Z,1012.50
2018-11-06T11:26:49.412Z,1029.38
2018-11-06T11:27:49.325Z,1018.13
2018-11-06T11:28:49.320Z,978.75
2018-11-06T11:29:49.337Z,973.13
2018-11-06T11:30:49.361Z,961.88
2018-11-06T11:31:49.522Z,900.00
2018-11-06T11:32:49.423Z,838.13
2018-11-06T11:33:49.452Z,838.13
2018-11-06T11:34:49.447Z,883.13
2018-11-06T11:35:49.452Z,933.75
2018-11-06T11:36:49.584Z,1001.25
2018-11-06T11:37:49.638Z,1096.88
2018-11-06T11:38:49.506Z,1186.88
2018-11-06T11:39:49.524Z,1248.75
2018-11-06T11:40:49.541Z,1366.88
2018-11-06T11:41:49.600Z,1417.50
2018-11-06T11:42:49.587Z,1411.88
2018-11-06T11:43:49.618Z,1423.13
2018-11-06T11:44:49.612Z,1389.38
2018-11-06T11:45:49.697Z,1395.00
2018-11-06T11:46:49.723Z,1485.00
2018-11-06T11:47:49.795Z,1518.75
2018-11-06T11:48:49.688Z,1636.88
2018-11-06T11:49:49.726Z,1513.13
2018-11-06T11:50:49.753Z,1361.25
2018-11-06T11:51:49.750Z,1271.25
2018-11-06T11:52:49.996Z,1198.13
2018-11-06T11:53:49.791Z,1113.75
2018-11-06T11:54:49.832Z,1130.63
2018-11-06T11:55:49.839Z,1130.63
2018-11-06T11:56:49.861Z,1130.63
2018-11-06T11:57:50.027Z,1125.00
2018-11-06T11:58:49.899Z,1130.63
2018-11-06T11:59:49.962Z,1186.88
2018-11-06T12:00:49.947Z,1237.50
2018-11-06T12:01:49.942Z,1231.88
2018-11-06T12:02:50.053Z,1288.13
2018-11-06T12:03:50.002Z,1355.63
2018-11-06T12:04:50.019Z,1378.13
2018-11-06T12:05:50.020Z,1417.50
2018-11-06T12:06:50.052Z,1434.38
2018-11-06T12:07:50.105Z,1501.88
2018-11-06T12:08:50.094Z,1732.50
2018-11-06T12:09:50.116Z,1620.00
2018-11-06T12:10:50.117Z,1704.38
2018-11-06T12:11:50.153Z,2491.88
2018-11-06T12:12:50.334Z,3054.38
2018-11-06T12:13:50.188Z,1929.38
2018-11-06T12:14:50.219Z,1552.50
2018-11-06T12:15:50.249Z,1783.13
2018-11-06T12:16:50.262Z,1513.13
2018-11-06T12:17:50.274Z,1608.75
2018-11-06T12:18:50.414Z,1597.50
2018-11-06T12:19:50.317Z,1507.50
2018-11-06T12:20:50.361Z,1451.25
2018-11-06T12:21:50.362Z,1546.88
2018-11-06T12:22:50.524Z,1473.75
2018-11-06T12:23:50.408Z,1445.63
2018-11-06T12:24:50.548Z,1485.00
2018-11-06T12:25:50.555Z,1417.50
2018-11-06T12:26:50.480Z,1417.50
2018-11-06T12:27:50.586Z,1558.13
2018-11-06T12:28:50.562Z,1361.25
2018-11-06T12:29:50.556Z,1501.88
2018-11-06T12:30:50.555Z,1681.88
2018-11-06T12:31:50.575Z,1991.25
2018-11-06T12:32:50.771Z,1670.63
2018-11-06T12:33:50.620Z,1732.50
2018-11-06T12:34:50.712Z,2250.00
2018-11-06T12:35:50.671Z,2115.00
2018-11-06T12:36:50.725Z,2806.88
2018-11-06T12:37:50.848Z,2081.25
2018-11-06T12:38:50.764Z,2227.50
2018-11-06T12:39:50.770Z,2531.25
2018-11-06T12:40:50.796Z,3408.75
2018-11-06T12:41:50.833Z,1805.63
2018-11-06T12:42:51.029Z,2345.63
2018-11-06T12:43:50.887Z,3088.13
2018-11-06T12:44:50.898Z,2773.13
2018-11-06T12:45:50.914Z,2936.25
2018-11-06T12:46:50.933Z,2857.50
2018-11-06T12:47:51.120Z,2908.13
2018-11-06T12:48:50.995Z,2840.63
2018-11-06T12:49:51.026Z,2373.75
2018-11-06T12:50:51.037Z,2784.38
2018-11-06T12:51:51.065Z,2525.63
2018-11-06T12:52:51.210Z,2761.88
2018-11-06T12:53:51.137Z,2846.25
2018-11-06T12:54:51.162Z,2784.38
2018-11-06T12:55:51.182Z,2829.38
2018-11-06T12:56:51.202Z,2559.38
2018-11-06T12:57:51.286Z,3037.50
2018-11-06T12:58:51.260Z,1102.50